createdAt,value
2018-03-19T00:01:10.529Z,75.30
2018-03-19T00:03:38.790Z,75.60
2018-03-19T00:06:06.587Z,75.60
2018-03-19T00:08:34.095Z,76.00
2018-03-19T00:11:01.600Z,74.50
2018-03-19T00:13:29.108Z,75.60
2018-03-19T00:15:56.622Z,75.50
2018-03-19T00:18:24.471Z,75.50
2018-03-19T00:20:51.990Z,75.40
2018-03-19T00:23:19.510Z,75.70
2018-03-19T00:25:47.034Z,76.40
2018-03-19T00:28:14.543Z,76.20
2018-03-19T00:30:42.054Z,75.70
2018-03-19T00:33:10.330Z,75.90
2018-03-19T00:35:38.770Z,75.00
2018-03-19T00:38:06.282Z,74.80
2018-03-19T00:40:33.884Z,75.50
2018-03-19T00:43:01.385Z,75.50
2018-03-19T00:45:28.878Z,76.00
2018-03-19T00:47:56.406Z,76.20
2018-03-19T00:50:23.928Z,76.00
2018-03-19T00:52:51.484Z,75.50
2018-03-19T00:55:19.285Z,75.30
2018-03-19T00:57:47.597Z,76.80
2018-03-19T01:00:15.095Z,76.70
2018-03-19T01:02:42.759Z,77.10
2018-03-19T01:05:10.280Z,76.50
2018-03-19T01:07:37.802Z,76.20
2018-03-19T01:10:05.600Z,76.40
2018-03-19T01:12:33.106Z,76.30
2018-03-19T01:15:00.628Z,76.20
2018-03-19T01:17:28.133Z,76.20
2018-03-19T01:19:56.413Z,75.10
2018-03-19T01:22:23.932Z,75.00
2018-03-19T01:24:51.449Z,76.70
2018-03-19T01:27:19.060Z,76.10
2018-03-19T01:29:46.575Z,74.60
2018-03-19T01:32:14.161Z,75.00
2018-03-19T01:34:41.808Z,75.90
2018-03-19T01:37:09.322Z,75.20
2018-03-19T01:39:37.628Z,75.50
2018-03-19T01:42:05.151Z,74.70
2018-03-19T01:44:32.863Z,74.50
2018-03-19T01:47:00.536Z,75.00
2018-03-19T01:49:28.053Z,76.30
2018-03-19T01:51:55.561Z,75.10
2018-03-19T01:54:23.125Z,75.30
2018-03-19T01:56:50.650Z,75.90
2018-03-19T01:59:18.163Z,75.40
2018-03-19T02:01:45.689Z,76.80
2018-03-19T02:04:13.328Z,76.40
2018-03-19T02:06:40.853Z,76.70
2018-03-19T02:09:08.355Z,77.00
2018-03-19T02:11:35.858Z,77.00
2018-03-19T02:14:03.370Z,77.20
2018-03-19T02:16:31.106Z,77.30
2018-03-19T02:18:59.397Z,76.20
2018-03-19T02:21:26.968Z,76.20
2018-03-19T02:23:54.489Z,75.50
2018-03-19T02:26:22.770Z,75.30
2018-03-19T02:28:51.064Z,74.80
2018-03-19T02:31:18.568Z,74.80
2018-03-19T02:33:46.106Z,75.00
2018-03-19T02:36:13.663Z,75.10
2018-03-19T02:38:41.187Z,75.30
2018-03-19T02:41:08.867Z,75.20
2018-03-19T02:43:36.379Z,75.60
2018-03-19T02:46:03.877Z,75.80
2018-03-19T02:48:32.243Z,75.60
2018-03-19T02:50:59.772Z,76.30
2018-03-19T02:53:27.290Z,75.60
2018-03-19T02:55:54.808Z,75.60
2018-03-19T02:58:22.335Z,76.00
2018-03-19T03:00:49.856Z,75.50
2018-03-19T03:03:17.406Z,75.30
2018-03-19T03:05:45.064Z,76.10
2018-03-19T03:08:12.553Z,76.40
2018-03-19T03:10:40.070Z,76.30
2018-03-19T03:13:08.326Z,75.30
2018-03-19T03:15:36.018Z,75.20
2018-03-19T03:18:03.529Z,76.00
2018-03-19T03:20:31.094Z,75.80
2018-03-19T03:22:58.653Z,75.10
2018-03-19T03:25:26.328Z,74.90
2018-03-19T03:27:53.840Z,75.90
2018-03-19T03:30:21.396Z,74.70
2018-03-19T03:32:48.922Z,73.60
2018-03-19T03:35:17.185Z,73.90
2018-03-19T03:37:44.707Z,73.90
2018-03-19T03:40:12.257Z,74.00
2018-03-19T03:42:39.780Z,73.00
2018-03-19T03:45:08.061Z,75.00
2018-03-19T03:47:36.348Z,74.30
2018-03-19T03:50:03.938Z,74.20
2018-03-19T03:52:32.140Z,73.10
2018-03-19T03:54:59.661Z,72.80
2018-03-19T03:57:27.161Z,73.70
2018-03-19T03:59:57.315Z,74.70
2018-03-19T04:02:24.994Z,75.60
2018-03-19T04:04:52.489Z,73.80
2018-03-19T04:07:20.004Z,73.20
2018-03-19T04:09:47.522Z,73.50
2018-03-19T04:12:15.048Z,73.20
2018-03-19T04:14:42.583Z,72.70
2018-03-19T04:17:10.114Z,73.00
2018-03-19T04:19:37.612Z,72.80
2018-03-19T04:22:05.248Z,71.90
2018-03-19T04:24:32.805Z,71.20
2018-03-19T04:27:00.314Z,71.80
2018-03-19T04:29:28.051Z,72.20
2018-03-19T04:31:55.575Z,71.30
2018-03-19T04:34:23.873Z,71.80
2018-03-19T04:36:51.401Z,71.70
2018-03-19T04:39:19.103Z,71.30
2018-03-19T04:41:46.643Z,70.90
2018-03-19T04:44:14.187Z,71.30
2018-03-19T04:46:41.887Z,70.70
2018-03-19T04:49:09.393Z,70.70
2018-03-19T04:51:36.917Z,69.90
2018-03-19T04:54:04.655Z,71.30
2018-03-19T04:56:32.188Z,71.50
2018-03-19T04:58:59.894Z,72.80
2018-03-19T05:01:27.441Z,71.90
2018-03-19T05:03:54.996Z,70.60
2018-03-19T05:06:22.551Z,70.50
2018-03-19T05:08:50.089Z,70.60
2018-03-19T05:11:17.639Z,71.70
2018-03-19T05:13:45.413Z,71.20
2018-03-19T05:16:13.799Z,70.60
2018-03-19T05:18:41.469Z,70.70
2018-03-19T05:21:08.992Z,70.00
2018-03-19T05:23:36.594Z,70.40
2018-03-19T05:26:04.126Z,70.80
2018-03-19T05:28:31.727Z,70.50
2018-03-19T05:30:59.264Z,70.30
2018-03-19T05:33:27.583Z,70.20
2018-03-19T05:35:55.091Z,70.20
2018-03-19T05:38:22.612Z,69.70
2018-03-19T05:40:50.784Z,70.10
2018-03-19T05:43:18.410Z,70.20
2018-03-19T05:45:46.620Z,70.70
2018-03-19T05:48:14.477Z,72.80
2018-03-19T05:50:43.140Z,72.20
2018-03-19T05:53:11.022Z,71.60
2018-03-19T05:55:39.831Z,71.60
2018-03-19T05:58:08.661Z,72.10
2018-03-19T06:00:37.435Z,70.60
2018-03-19T06:03:04.986Z,69.80
2018-03-19T06:05:32.663Z,69.70
2018-03-19T06:08:01.338Z,68.90
2018-03-19T06:10:29.705Z,69.90
2018-03-19T06:12:57.199Z,70.10
2018-03-19T06:15:27.734Z,70.60
2018-03-19T06:17:56.083Z,69.70
2018-03-19T06:20:24.221Z,69.70
2018-03-19T06:22:51.767Z,70.80
2018-03-19T06:25:19.298Z,71.10
2018-03-19T06:27:46.992Z,71.30
2018-03-19T06:30:14.673Z,71.10
2018-03-19T06:32:42.214Z,71.40
2018-03-19T06:35:10.135Z,70.00
2018-03-19T06:37:38.092Z,71.00
2018-03-19T06:40:05.623Z,70.30
2018-03-19T06:42:33.422Z,70.20
2018-03-19T06:45:00.945Z,70.10
2018-03-19T06:47:28.757Z,69.30
2018-03-19T06:49:57.049Z,70.10
2018-03-19T06:52:25.454Z,71.60
2018-03-19T06:54:53.312Z,71.50
2018-03-19T06:57:20.857Z,70.80
2018-03-19T06:59:48.358Z,70.60
2018-03-19T07:02:15.880Z,71.60
2018-03-19T07:04:43.813Z,71.10
2018-03-19T07:07:11.358Z,69.60
2018-03-19T07:09:38.857Z,68.90
2018-03-19T07:12:06.376Z,69.20
2018-03-19T07:14:33.901Z,69.60
2018-03-19T07:17:01.423Z,69.70
2018-03-19T07:19:28.933Z,68.60
2018-03-19T07:21:56.471Z,68.40
2018-03-19T07:24:23.981Z,68.50
2018-03-19T07:26:51.467Z,69.50
2018-03-19T07:29:19.014Z,69.90
2018-03-19T07:31:47.265Z,69.00
2018-03-19T07:34:14.905Z,69.00
2018-03-19T07:36:42.444Z,68.80
2018-03-19T07:39:10.056Z,68.40
2018-03-19T07:41:38.342Z,68.70
2018-03-19T07:44:07.172Z,69.80
2018-03-19T07:46:34.684Z,69.80
2018-03-19T07:49:02.965Z,67.60
2018-03-19T07:51:31.242Z,68.10
2018-03-19T07:53:58.739Z,67.90
2018-03-19T07:56:26.275Z,68.40
2018-03-19T07:58:53.769Z,68.90
2018-03-19T08:01:21.330Z,69.50
2018-03-19T08:03:48.837Z,68.00
2018-03-19T08:06:17.279Z,66.60
2018-03-19T08:08:44.803Z,66.50
2018-03-19T08:11:12.361Z,67.00
2018-03-19T08:13:39.871Z,66.80
2018-03-19T08:16:07.408Z,65.80
2018-03-19T08:18:35.056Z,66.60
2018-03-19T08:21:02.714Z,66.70
2018-03-19T08:23:30.266Z,66.60
2018-03-19T08:25:57.832Z,66.40
2018-03-19T08:28:25.348Z,65.90
2018-03-19T08:30:54.127Z,65.60
2018-03-19T08:33:21.930Z,65.60
2018-03-19T08:35:49.507Z,64.70
2018-03-19T08:38:17.279Z,66.10
2018-03-19T08:40:44.783Z,65.70
2018-03-19T08:43:13.398Z,66.20
2018-03-19T08:45:40.974Z,66.20
2018-03-19T08:48:08.514Z,67.80
2018-03-19T08:50:36.102Z,67.00
2018-03-19T08:53:03.604Z,66.90
2018-03-19T08:55:31.178Z,67.30
2018-03-19T08:57:58.724Z,65.90
2018-03-19T09:00:27.118Z,65.10
2018-03-19T09:02:54.621Z,65.10
2018-03-19T09:05:22.112Z,63.90
2018-03-19T09:07:50.419Z,64.10
2018-03-19T09:10:17.936Z,64.10
2018-03-19T09:12:45.534Z,63.30
2018-03-19T09:15:13.059Z,63.40
2018-03-19T09:17:40.579Z,65.10
2018-03-19T09:20:08.115Z,63.40
2018-03-19T09:22:35.645Z,61.10
2018-03-19T09:25:03.171Z,60.80
2018-03-19T09:27:30.702Z,60.30
2018-03-19T09:29:58.205Z,60.20
2018-03-19T09:32:25.712Z,59.80
2018-03-19T09:34:53.237Z,59.90
2018-03-19T09:37:20.731Z,61.40
2018-03-19T09:39:48.283Z,61.30
2018-03-19T09:42:15.823Z,60.80
2018-03-19T09:44:43.409Z,60.10
2018-03-19T09:47:10.935Z,59.70
2018-03-19T09:49:38.434Z,59.30
2018-03-19T09:52:05.959Z,60.90
2018-03-19T09:54:33.487Z,60.40
2018-03-19T09:57:02.044Z,59.80
2018-03-19T09:59:29.542Z,59.80
2018-03-19T10:01:57.076Z,61.10
2018-03-19T10:04:24.619Z,61.00
2018-03-19T10:06:52.578Z,60.30
2018-03-19T10:09:20.189Z,60.30
2018-03-19T10:11:47.709Z,60.70
2018-03-19T10:14:15.736Z,60.00
2018-03-19T10:16:43.704Z,60.30
2018-03-19T10:19:11.216Z,59.70
2018-03-19T10:21:38.702Z,61.00
2018-03-19T10:24:06.421Z,61.80
2018-03-19T10:26:33.963Z,61.30
2018-03-19T10:29:01.478Z,60.00
2018-03-19T10:31:29.006Z,61.10
2018-03-19T10:33:56.532Z,61.20
2018-03-19T10:36:24.302Z,63.10
2018-03-19T10:38:51.820Z,61.90
2018-03-19T10:41:20.078Z,63.80
2018-03-19T10:43:48.384Z,62.90
2018-03-19T10:46:15.910Z,61.90
2018-03-19T10:48:43.428Z,61.90
2018-03-19T10:51:10.951Z,61.90
2018-03-19T10:53:38.455Z,62.30
2018-03-19T10:56:05.987Z,62.00
2018-03-19T10:58:33.519Z,61.90
2018-03-19T11:01:06.946Z,63.20
2018-03-19T11:03:34.509Z,66.00
2018-03-19T11:06:07.651Z,68.10
2018-03-19T11:08:35.148Z,67.60
2018-03-19T11:11:02.692Z,66.60
2018-03-19T11:13:31.409Z,65.30
2018-03-19T11:15:58.950Z,65.30
2018-03-19T11:18:26.473Z,64.60
2018-03-19T11:20:54.916Z,63.90
2018-03-19T11:23:22.467Z,64.70
2018-03-19T11:25:50.026Z,62.90
2018-03-19T11:28:17.570Z,60.10
2018-03-19T11:30:45.074Z,62.10
2018-03-19T11:33:12.638Z,63.10
2018-03-19T11:35:40.144Z,61.50
2018-03-19T11:38:07.705Z,62.80
2018-03-19T11:40:35.276Z,63.10
2018-03-19T11:43:02.783Z,63.60
2018-03-19T11:45:31.099Z,62.90
2018-03-19T11:47:58.599Z,62.80
2018-03-19T11:50:26.129Z,61.70
2018-03-19T11:52:53.695Z,62.30
2018-03-19T11:55:21.187Z,63.30
2018-03-19T11:57:49.473Z,62.20
2018-03-19T12:00:18.154Z,60.00
2018-03-19T12:02:46.482Z,59.60
2018-03-19T12:05:14.012Z,59.60
2018-03-19T12:07:41.511Z,60.60
2018-03-19T12:10:09.043Z,62.90
2018-03-19T12:12:37.078Z,59.50
2018-03-19T12:15:05.495Z,62.80
2018-03-19T12:17:33.135Z,62.70
2018-03-19T12:20:00.660Z,59.80
2018-03-19T12:22:28.170Z,60.90
2018-03-19T12:24:55.938Z,60.40
2018-03-19T12:27:23.504Z,60.00
2018-03-19T12:29:51.038Z,59.60
2018-03-19T12:32:18.530Z,59.20
2018-03-19T12:34:46.093Z,60.00
2018-03-19T12:37:13.601Z,59.30
2018-03-19T12:39:41.865Z,60.50
2018-03-19T12:42:10.180Z,60.90
2018-03-19T12:44:37.847Z,60.80
2018-03-19T12:47:05.364Z,60.20
2018-03-19T12:49:32.907Z,60.80
2018-03-19T12:52:00.451Z,59.50
2018-03-19T12:54:28.017Z,58.90
2018-03-19T12:56:55.559Z,59.10
2018-03-19T12:59:23.506Z,60.60
2018-03-19T13:01:51.154Z,59.30
2018-03-19T13:04:18.734Z,60.80
2018-03-19T13:06:46.678Z,59.80
2018-03-19T13:09:14.270Z,59.60
2018-03-19T13:11:41.789Z,60.90
2018-03-19T13:14:09.388Z,60.10
2018-03-19T13:16:36.912Z,58.70
2018-03-19T13:19:04.432Z,59.40
2018-03-19T13:21:31.955Z,61.70
2018-03-19T13:23:59.609Z,61.80
2018-03-19T13:26:27.925Z,59.30
2018-03-19T13:28:55.434Z,58.70
2018-03-19T13:31:23.093Z,58.60
2018-03-19T13:33:51.846Z,59.60
2018-03-19T13:36:19.421Z,59.50
2018-03-19T13:38:46.952Z,60.20
2018-03-19T13:41:14.486Z,59.30
2018-03-19T13:43:42.137Z,59.40
2018-03-19T13:46:10.016Z,59.10
2018-03-19T13:48:37.556Z,59.20
2018-03-19T13:51:05.078Z,59.10
2018-03-19T13:53:32.710Z,62.10
2018-03-19T13:56:00.173Z,64.80
2018-03-19T13:58:27.706Z,65.40
2018-03-19T14:00:55.283Z,63.20
2018-03-19T14:03:22.770Z,64.70
2018-03-19T14:05:50.305Z,63.20
2018-03-19T14:08:17.851Z,65.10
2018-03-19T14:10:45.533Z,66.10
2018-03-19T14:13:13.161Z,66.50
2018-03-19T14:15:41.493Z,67.50
2018-03-19T14:18:09.035Z,66.90
2018-03-19T14:20:37.320Z,67.70
2018-03-19T14:23:04.906Z,68.20
2018-03-19T14:25:32.419Z,66.80
2018-03-19T14:28:00.047Z,67.80
2018-03-19T14:30:27.511Z,68.30
2018-03-19T14:32:55.078Z,65.60
2018-03-19T14:35:22.568Z,65.50
2018-03-19T14:37:50.975Z,68.40
2018-03-19T14:40:18.707Z,67.80
2018-03-19T14:42:46.266Z,65.70
2018-03-19T14:45:13.778Z,65.60
2018-03-19T14:47:41.330Z,66.50
2018-03-19T14:50:08.873Z,66.40
2018-03-19T14:52:36.544Z,66.50
2018-03-19T14:55:04.187Z,66.50
2018-03-19T14:57:31.855Z,66.70
2018-03-19T14:59:59.388Z,69.00
2018-03-19T15:02:26.933Z,70.40
2018-03-19T15:04:54.469Z,69.70
2018-03-19T15:07:22.076Z,71.10
2018-03-19T15:09:50.417Z,70.60
2018-03-19T15:12:18.156Z,71.20
2018-03-19T15:14:45.738Z,70.90
2018-03-19T15:17:13.250Z,70.50
2018-03-19T15:19:40.765Z,72.10
2018-03-19T15:22:08.311Z,71.50
2018-03-19T15:24:35.901Z,72.20
2018-03-19T15:27:03.468Z,72.40
2018-03-19T15:29:31.170Z,72.90
2018-03-19T15:31:58.673Z,72.30
2018-03-19T15:34:26.286Z,73.50
2018-03-19T15:36:54.050Z,74.40
2018-03-19T15:39:21.583Z,73.30
2018-03-19T15:41:49.080Z,74.40
2018-03-19T15:44:16.631Z,74.90
2018-03-19T15:46:44.176Z,76.60
2018-03-19T15:49:11.888Z,76.80
2018-03-19T17:42:23.787Z,87.20
2018-03-19T17:44:51.514Z,86.70
2018-03-19T17:47:19.056Z,87.10
2018-03-19T17:49:46.616Z,87.40
2018-03-19T17:52:14.130Z,87.10
2018-03-19T17:54:41.657Z,86.80
2018-03-19T17:57:09.184Z,87.20
2018-03-19T17:59:36.762Z,87.50
2018-03-19T18:02:04.295Z,87.50
2018-03-19T18:04:31.833Z,87.10
2018-03-19T18:07:00.114Z,87.10
2018-03-19T18:09:28.735Z,87.10
2018-03-19T18:11:56.297Z,86.90
2018-03-19T18:14:23.865Z,87.20
2018-03-19T18:16:51.411Z,86.40
2018-03-19T18:19:18.982Z,87.70
2018-03-19T18:21:46.637Z,87.60
2018-03-19T18:24:14.188Z,87.20
2018-03-19T18:26:41.701Z,87.50
2018-03-19T18:29:10.822Z,86.90
2018-03-19T18:31:38.328Z,86.90
2018-03-19T18:34:05.845Z,87.90
2018-03-19T18:36:33.338Z,88.10
2018-03-19T18:39:01.041Z,87.40
2018-03-19T18:41:28.586Z,87.50
2018-03-19T18:43:56.090Z,88.40
2018-03-19T18:46:23.666Z,88.10
2018-03-19T18:48:51.162Z,88.40
2018-03-19T18:51:18.704Z,88.30
2018-03-19T18:53:46.313Z,87.70
2018-03-19T18:56:13.814Z,87.70
2018-03-19T18:58:41.370Z,87.00
2018-03-19T19:01:09.016Z,87.50
2018-03-19T19:03:36.550Z,87.30
2018-03-19T19:06:05.007Z,87.10
2018-03-19T19:08:32.526Z,87.30
2018-03-19T19:11:00.039Z,86.80
2018-03-19T19:13:27.986Z,86.80
2018-03-19T19:15:55.500Z,86.70
2018-03-19T19:18:23.104Z,86.60
2018-03-19T19:20:51.645Z,87.20
2018-03-19T19:23:19.277Z,87.50
2018-03-19T19:25:46.823Z,87.60
2018-03-19T19:28:14.405Z,87.70
2018-03-19T19:30:41.977Z,87.80
2018-03-19T19:33:09.712Z,88.20
2018-03-19T19:35:38.190Z,88.80
2018-03-19T19:38:05.715Z,88.60
2018-03-19T19:40:33.267Z,88.60
2018-03-19T19:43:00.842Z,88.00
2018-03-19T19:45:28.396Z,88.40
2018-03-19T19:47:55.946Z,87.90
2018-03-19T19:50:23.479Z,87.90
2018-03-19T19:52:50.987Z,87.80
2018-03-19T19:55:18.504Z,87.30
2018-03-19T19:57:46.018Z,86.90
2018-03-19T20:00:13.568Z,87.20
2018-03-19T20:02:41.125Z,87.10
2018-03-19T20:05:08.654Z,88.00
2018-03-19T20:07:36.215Z,88.30
2018-03-19T20:10:03.744Z,87.90
2018-03-19T20:12:31.336Z,88.00
2018-03-19T20:14:58.905Z,88.20
2018-03-19T20:17:26.568Z,88.20
2018-03-19T20:19:54.087Z,88.90
2018-03-19T20:22:21.638Z,88.90
2018-03-19T20:24:49.215Z,88.40
2018-03-19T20:27:16.707Z,89.20
2018-03-19T20:29:44.276Z,89.30
2018-03-19T20:32:11.792Z,88.90
2018-03-19T20:34:39.303Z,89.00
2018-03-19T20:37:06.848Z,89.00
2018-03-19T20:39:34.366Z,89.00
2018-03-19T20:42:02.655Z,88.60
2018-03-19T20:44:30.960Z,88.50
2018-03-19T20:46:58.482Z,88.50
2018-03-19T20:49:26.015Z,88.50
2018-03-19T20:51:53.626Z,89.20
2018-03-19T20:54:23.200Z,89.00
2018-03-19T20:56:51.482Z,88.20
2018-03-19T20:59:35.495Z,88.50
2018-03-19T21:02:04.876Z,89.00
2018-03-19T21:04:32.458Z,89.00
2018-03-19T21:07:00.005Z,88.90
2018-03-19T21:09:27.537Z,88.40
2018-03-19T21:11:55.162Z,88.30
2018-03-19T21:14:23.521Z,87.90
2018-03-19T21:16:51.077Z,87.90
2018-03-19T21:30:56.021Z,87.40
2018-03-19T21:33:24.309Z,86.90
2018-03-19T21:35:51.817Z,86.80
2018-03-19T21:38:19.369Z,87.10
2018-03-19T21:40:46.952Z,88.30
2018-03-19T21:43:14.496Z,88.40
2018-03-19T21:45:42.059Z,88.40
2018-03-19T21:48:09.574Z,89.20
2018-03-19T21:50:37.080Z,89.00
2018-03-19T21:53:04.809Z,88.90
2018-03-19T21:55:32.465Z,88.60
2018-03-19T21:58:00.223Z,88.90
2018-03-19T22:00:29.193Z,88.90
2018-03-19T22:02:57.249Z,89.20
2018-03-19T22:05:25.298Z,89.40
2018-03-19T22:07:52.966Z,90.00
2018-03-19T22:10:21.250Z,90.30
2018-03-19T22:12:48.782Z,90.20
2018-03-19T22:15:16.309Z,90.20
2018-03-19T22:17:44.709Z,89.80
2018-03-19T22:20:12.207Z,89.80
2018-03-19T22:22:40.533Z,89.40
2018-03-19T22:25:08.058Z,88.90
2018-03-19T22:27:35.784Z,88.50
2018-03-19T22:30:03.314Z,88.10
2018-03-19T22:32:31.145Z,87.30
2018-03-19T22:34:58.694Z,87.50
2018-03-19T22:37:26.213Z,88.60
2018-03-19T22:39:53.822Z,88.20
2018-03-19T22:42:22.123Z,88.00
2018-03-19T22:44:50.397Z,87.00
2018-03-19T22:47:18.640Z,86.90
2018-03-19T22:49:46.174Z,86.90
2018-03-19T22:52:13.669Z,87.60
2018-03-19T22:54:41.234Z,88.90
2018-03-19T22:57:08.770Z,87.80
2018-03-19T22:59:36.404Z,87.90
2018-03-19T23:02:04.262Z,88.20
2018-03-19T23:04:43.627Z,88.20
2018-03-19T23:07:11.162Z,88.50
2018-03-19T23:09:39.080Z,88.40
2018-03-19T23:12:06.640Z,88.60
2018-03-19T23:14:34.206Z,87.90
2018-03-19T23:17:02.828Z,88.00
2018-03-19T23:19:30.327Z,88.00
2018-03-19T23:21:57.845Z,88.50
2018-03-19T23:24:25.602Z,88.90
2018-03-19T23:26:53.301Z,89.00
2018-03-19T23:29:21.017Z,87.20
2018-03-19T23:31:48.558Z,85.80
2018-03-19T23:34:16.976Z,85.20
2018-03-19T23:36:44.579Z,85.20
2018-03-19T23:39:12.088Z,85.00
2018-03-19T23:41:39.618Z,85.10
2018-03-19T23:44:07.344Z,85.30
2018-03-19T23:46:34.863Z,85.80
2018-03-19T23:49:02.394Z,84.80
2018-03-19T23:51:29.911Z,84.50
2018-03-19T23:53:57.570Z,84.00
2018-03-19T23:56:25.092Z,84.20
2018-03-19T23:58:52.748Z,83.30
